createdAt,value
2023-03-30T00:08:56.565Z,76.08
2023-03-30T00:18:31.441Z,70.95
2023-03-30T00:28:04.524Z,70.91
2023-03-30T00:37:38.506Z,72.67
2023-03-30T00:47:12.192Z,73.89
2023-03-30T00:56:46.142Z,74.40
2023-03-30T01:06:22.288Z,74.76
2023-03-30T01:15:56.235Z,74.74
2023-03-30T01:25:30.250Z,77.05
2023-03-30T01:35:03.990Z,76.92
2023-03-30T01:44:36.544Z,78.17
2023-03-30T01:54:10.590Z,79.85
2023-03-30T02:03:46.351Z,80.25
2023-03-30T02:13:20.135Z,80.42
2023-03-30T02:22:52.677Z,80.97
2023-03-30T02:32:26.736Z,81.08
2023-03-30T02:42:00.203Z,80.49
2023-03-30T02:51:37.128Z,79.68
2023-03-30T03:01:10.758Z,79.66
2023-03-30T03:10:44.267Z,77.12
2023-03-30T03:20:15.911Z,76.68
2023-03-30T03:29:51.170Z,78.40
2023-03-30T03:39:24.622Z,78.90
2023-03-30T03:48:57.810Z,79.95
2023-03-30T03:58:33.149Z,80.83
2023-03-30T04:08:05.211Z,80.49
2023-03-30T04:17:39.796Z,79.12
2023-03-30T04:27:13.134Z,79.23
2023-03-30T04:36:46.504Z,80.51
2023-03-30T04:46:21.124Z,83.83
2023-03-30T04:55:54.966Z,87.38
2023-03-30T05:05:25.897Z,89.03
2023-03-30T05:15:00.338Z,88.54
2023-03-30T05:24:34.842Z,91.56
2023-03-30T05:34:09.868Z,95.54
2023-03-30T05:43:42.708Z,96.08
2023-03-30T05:53:15.478Z,98.51
2023-03-30T06:02:49.185Z,100.00
2023-03-30T06:12:22.970Z,100.00
2023-03-30T06:21:58.571Z,100.00
2023-03-30T06:31:32.794Z,100.00
2023-03-30T06:41:06.874Z,100.00
2023-03-30T06:50:39.134Z,100.00
2023-03-30T07:00:13.231Z,99.91
2023-03-30T07:09:47.511Z,96.84
2023-03-30T07:19:23.985Z,96.14
2023-03-30T07:28:56.742Z,97.60
2023-03-30T07:38:31.574Z,98.63
2023-03-30T07:48:03.602Z,97.80
2023-03-30T07:57:39.236Z,97.48
2023-03-30T08:07:12.213Z,97.88
2023-03-30T08:16:46.802Z,98.05
2023-03-30T08:26:23.256Z,97.66
2023-03-30T08:27:25.749Z,97.11
2023-03-30T08:36:58.969Z,97.33
2023-03-30T08:38:01.415Z,96.91
2023-03-30T08:39:03.896Z,96.89
2023-03-30T08:48:36.542Z,96.76
2023-03-30T08:49:40.615Z,97.05
2023-03-30T08:50:44.551Z,96.91
2023-03-30T09:00:15.656Z,97.45
2023-03-30T09:01:18.187Z,97.53
2023-03-30T09:02:20.686Z,96.90
2023-03-30T09:03:23.191Z,97.26
2023-03-30T09:04:25.615Z,97.11
2023-03-30T09:05:29.789Z,96.63
2023-03-30T09:15:00.896Z,95.72
2023-03-30T09:16:05.117Z,95.60
2023-03-30T09:17:07.425Z,94.94
2023-03-30T09:18:11.502Z,94.54
2023-03-30T09:19:13.963Z,94.05
2023-03-30T09:20:18.122Z,93.15
2023-03-30T09:21:20.347Z,92.24
2023-03-30T09:22:24.418Z,91.82
2023-03-30T09:23:28.406Z,91.97
2023-03-30T09:24:33.319Z,92.15
2023-03-30T09:25:36.335Z,91.74
2023-03-30T09:26:38.643Z,91.55
2023-03-30T09:27:42.781Z,91.41
2023-03-30T09:28:45.045Z,91.45
2023-03-30T09:29:47.498Z,91.70
2023-03-30T09:30:49.977Z,91.29
2023-03-30T09:31:54.304Z,91.57
2023-03-30T09:32:56.608Z,91.58
2023-03-30T09:34:00.616Z,91.73
2023-03-30T09:35:02.988Z,91.83
2023-03-30T09:36:05.644Z,91.43
2023-03-30T09:37:09.756Z,91.46
2023-03-30T09:38:11.999Z,91.54
2023-03-30T09:39:14.468Z,91.54
2023-03-30T09:40:16.978Z,91.89
2023-03-30T09:41:19.460Z,91.96
2023-03-30T09:42:23.482Z,91.93
2023-03-30T09:43:27.485Z,90.58
2023-03-30T09:44:29.798Z,90.27
2023-03-30T09:45:33.344Z,90.03
2023-03-30T09:46:36.382Z,90.22
2023-03-30T09:47:38.864Z,90.32
2023-03-30T09:48:41.259Z,89.70
2023-03-30T09:58:13.969Z,87.04
2023-03-30T09:59:16.421Z,87.14
2023-03-30T10:00:18.951Z,88.11
2023-03-30T10:01:21.441Z,87.49
2023-03-30T10:02:25.593Z,86.77
2023-03-30T10:03:29.651Z,86.59
2023-03-30T10:04:31.917Z,85.98
2023-03-30T10:05:40.237Z,85.80
2023-03-30T10:06:42.412Z,85.46
2023-03-30T10:07:44.742Z,85.17
2023-03-30T10:08:48.826Z,85.56
2023-03-30T10:09:51.158Z,84.97
2023-03-30T10:10:55.271Z,85.36
2023-03-30T10:11:57.611Z,83.93
2023-03-30T10:13:01.728Z,83.27
2023-03-30T10:22:33.295Z,80.87
2023-03-30T10:23:38.681Z,81.43
2023-03-30T10:24:42.012Z,81.65
2023-03-30T10:25:43.348Z,81.47
2023-03-30T10:26:45.855Z,80.70
2023-03-30T10:27:48.272Z,80.62
2023-03-30T10:28:52.302Z,79.17
2023-03-30T10:29:54.678Z,79.12
2023-03-30T10:30:58.801Z,79.65
2023-03-30T10:32:01.267Z,79.71
2023-03-30T10:33:03.696Z,79.90
2023-03-30T10:34:07.742Z,79.98
2023-03-30T10:35:10.190Z,78.76
2023-03-30T10:36:14.229Z,79.03
2023-03-30T10:37:18.107Z,78.91
2023-03-30T10:38:22.276Z,79.01
2023-03-30T10:39:24.568Z,78.00
2023-03-30T10:40:27.028Z,78.68
2023-03-30T10:41:31.001Z,77.24
2023-03-30T10:42:33.386Z,77.93
2023-03-30T10:43:37.380Z,76.40
2023-03-30T10:44:39.731Z,77.22
2023-03-30T10:45:43.866Z,76.74
2023-03-30T10:46:47.807Z,76.32
2023-03-30T10:47:51.802Z,75.99
2023-03-30T10:48:54.060Z,74.99
2023-03-30T10:49:56.529Z,75.04
2023-03-30T10:51:00.588Z,74.50
2023-03-30T10:52:04.704Z,74.82
2023-03-30T10:53:06.955Z,74.78
2023-03-30T10:54:10.429Z,73.54
2023-03-30T10:55:12.944Z,73.82
2023-03-30T10:56:16.912Z,73.07
2023-03-30T10:57:20.889Z,73.15
2023-03-30T10:58:23.196Z,73.30
2023-03-30T10:59:27.274Z,73.50
2023-03-30T11:00:29.656Z,72.86
2023-03-30T11:01:32.202Z,72.64
2023-03-30T11:02:34.623Z,73.03
2023-03-30T11:03:38.642Z,72.50
2023-03-30T11:04:42.468Z,72.91
2023-03-30T11:05:46.410Z,73.58
2023-03-30T11:06:48.755Z,71.98
2023-03-30T11:07:52.735Z,72.09
2023-03-30T11:08:56.742Z,72.46
2023-03-30T11:10:00.683Z,73.89
2023-03-30T11:11:02.955Z,72.20
2023-03-30T11:12:05.522Z,71.20
2023-03-30T11:13:09.513Z,71.69
2023-03-30T11:14:11.926Z,72.28
2023-03-30T11:15:14.401Z,72.71
2023-03-30T11:16:16.813Z,73.08
2023-03-30T11:17:20.880Z,72.17
2023-03-30T11:18:23.290Z,72.01
2023-03-30T11:19:27.343Z,70.43
2023-03-30T11:20:31.245Z,68.28
2023-03-30T11:21:35.190Z,68.02
2023-03-30T11:22:39.172Z,67.34
2023-03-30T11:23:43.111Z,67.84
2023-03-30T11:24:45.503Z,66.90
2023-03-30T11:25:49.510Z,67.26
2023-03-30T11:26:53.449Z,66.47
2023-03-30T11:27:57.435Z,66.35
2023-03-30T11:28:59.725Z,66.91
2023-03-30T11:30:03.760Z,63.64
2023-03-30T11:31:07.753Z,63.42
2023-03-30T11:32:11.664Z,64.48
2023-03-30T11:33:15.628Z,63.64
2023-03-30T11:34:19.511Z,63.99
2023-03-30T11:35:21.847Z,62.84
2023-03-30T11:36:24.374Z,61.95
2023-03-30T11:37:28.413Z,63.02
2023-03-30T11:38:30.754Z,63.44
2023-03-30T11:39:33.311Z,63.38
2023-03-30T11:40:35.682Z,63.55
2023-03-30T11:41:39.809Z,63.25
2023-03-30T11:42:42.157Z,62.92
2023-03-30T11:43:44.695Z,63.12
2023-03-30T11:44:47.092Z,62.37
2023-03-30T11:45:49.597Z,61.81
2023-03-30T11:46:52.122Z,58.41
2023-03-30T11:47:54.579Z,58.60
2023-03-30T11:48:57.049Z,60.28
2023-03-30T11:50:01.093Z,57.76
2023-03-30T11:51:05.247Z,59.20
2023-03-30T11:52:07.430Z,60.94
2023-03-30T11:53:11.548Z,57.89
2023-03-30T11:54:13.862Z,60.00
2023-03-30T11:55:17.969Z,62.16
2023-03-30T11:56:23.026Z,61.10
2023-03-30T11:57:25.918Z,59.81
2023-03-30T11:58:28.239Z,59.38
2023-03-30T11:59:32.346Z,59.23
2023-03-30T12:00:34.670Z,58.93
2023-03-30T12:01:37.104Z,58.80
2023-03-30T12:02:39.617Z,58.44
2023-03-30T12:03:42.163Z,59.18
2023-03-30T12:04:46.121Z,57.01
2023-03-30T12:05:50.026Z,59.08
2023-03-30T12:06:52.364Z,59.24
2023-03-30T12:07:56.483Z,59.40
2023-03-30T12:09:00.409Z,59.59
2023-03-30T12:10:04.712Z,58.73
2023-03-30T12:11:05.332Z,58.56
2023-03-30T12:12:07.741Z,59.04
2023-03-30T12:13:10.143Z,60.17
2023-03-30T12:14:12.643Z,60.71
2023-03-30T12:15:16.765Z,60.14
2023-03-30T12:16:20.670Z,60.75
2023-03-30T12:17:23.095Z,60.74
2023-03-30T12:18:25.503Z,60.22
2023-03-30T12:19:28.012Z,58.85
2023-03-30T12:20:32.082Z,60.47
2023-03-30T12:21:34.426Z,58.69
2023-03-30T12:22:38.535Z,56.17
2023-03-30T12:23:40.767Z,55.77
2023-03-30T12:24:44.850Z,54.65
2023-03-30T12:25:47.301Z,53.84
2023-03-30T12:27:04.227Z,54.60
2023-03-30T12:27:52.251Z,55.23
2023-03-30T12:29:21.175Z,53.75
2023-03-30T12:30:02.821Z,54.18
2023-03-30T12:31:02.650Z,54.93
2023-03-30T12:32:06.815Z,54.19
2023-03-30T12:33:09.089Z,56.12
2023-03-30T12:34:13.121Z,56.81
2023-03-30T12:35:15.388Z,55.87
2023-03-30T12:36:17.849Z,54.21
2023-03-30T12:37:21.975Z,54.10
2023-03-30T12:38:24.405Z,53.92
2023-03-30T12:39:28.455Z,54.48
2023-03-30T12:40:30.769Z,54.78
2023-03-30T12:41:33.353Z,54.49
2023-03-30T12:42:35.756Z,54.78
2023-03-30T12:43:38.218Z,55.67
2023-03-30T12:44:42.271Z,57.61
2023-03-30T12:45:46.226Z,60.44
2023-03-30T12:46:48.513Z,63.36
2023-03-30T12:47:52.509Z,61.37
2023-03-30T12:48:54.825Z,62.03
2023-03-30T12:49:57.315Z,63.45
2023-03-30T12:50:59.767Z,66.62
2023-03-30T12:52:03.823Z,65.75
2023-03-30T12:53:06.136Z,69.37
2023-03-30T12:54:10.201Z,67.84
2023-03-30T12:55:14.229Z,68.71
2023-03-30T12:56:16.560Z,68.14
2023-03-30T12:57:20.702Z,68.03
2023-03-30T12:58:24.552Z,69.48
2023-03-30T12:59:28.423Z,67.83
2023-03-30T13:00:30.737Z,69.31
2023-03-30T13:01:34.815Z,64.14
2023-03-30T13:02:38.769Z,65.72
2023-03-30T13:03:41.053Z,64.40
2023-03-30T13:04:43.543Z,63.23
2023-03-30T13:05:45.943Z,64.89
2023-03-30T13:06:48.426Z,67.64
2023-03-30T13:07:52.491Z,68.01
2023-03-30T13:08:54.830Z,69.75
2023-03-30T13:09:58.879Z,71.73
2023-03-30T13:11:02.799Z,72.11
2023-03-30T13:12:05.069Z,72.09
2023-03-30T13:13:07.471Z,68.60
2023-03-30T13:14:11.634Z,66.20
2023-03-30T13:15:15.575Z,65.61
2023-03-30T13:16:19.591Z,65.09
2023-03-30T13:17:21.956Z,63.85
2023-03-30T13:18:26.024Z,61.29
2023-03-30T13:19:29.956Z,61.05
2023-03-30T13:20:32.339Z,60.42
2023-03-30T13:21:36.215Z,61.28
2023-03-30T13:22:37.302Z,60.05
2023-03-30T13:23:41.409Z,58.34
2023-03-30T13:24:43.731Z,58.72
2023-03-30T13:25:46.208Z,57.39
2023-03-30T13:26:48.742Z,55.74
2023-03-30T13:27:51.164Z,57.10
2023-03-30T13:28:55.230Z,56.61
2023-03-30T13:29:57.539Z,56.01
2023-03-30T13:31:01.595Z,55.63
2023-03-30T13:32:03.950Z,56.81
2023-03-30T13:33:06.421Z,55.56
2023-03-30T13:34:08.849Z,56.13
2023-03-30T13:35:11.318Z,56.34
2023-03-30T13:36:13.739Z,56.12
2023-03-30T13:37:17.795Z,56.17
2023-03-30T13:38:20.192Z,56.85
2023-03-30T13:39:22.725Z,56.25
2023-03-30T13:40:38.418Z,58.93
2023-03-30T13:41:27.611Z,58.92
2023-03-30T13:42:30.028Z,61.60
2023-03-30T13:43:32.527Z,60.74
2023-03-30T13:44:36.622Z,60.44
2023-03-30T13:45:40.592Z,59.16
2023-03-30T13:46:42.925Z,60.22
2023-03-30T13:47:45.455Z,57.89
2023-03-30T13:48:47.861Z,56.88
2023-03-30T13:49:50.280Z,55.89
2023-03-30T13:50:54.357Z,57.86
2023-03-30T13:51:58.254Z,56.45
2023-03-30T13:53:00.614Z,57.38
2023-03-30T13:54:03.080Z,56.18
2023-03-30T13:55:05.574Z,58.05
2023-03-30T13:56:08.034Z,57.56
2023-03-30T13:57:10.500Z,55.89
2023-03-30T13:58:12.976Z,56.19
2023-03-30T13:59:15.474Z,55.87
2023-03-30T14:00:17.942Z,54.72
2023-03-30T14:01:20.458Z,55.29
2023-03-30T14:02:22.929Z,54.55
2023-03-30T14:03:26.978Z,55.26
2023-03-30T14:04:29.293Z,55.85
2023-03-30T14:05:33.234Z,56.37
2023-03-30T14:06:37.195Z,56.26
2023-03-30T14:07:42.333Z,57.79
2023-03-30T14:08:43.415Z,58.94
2023-03-30T14:09:47.484Z,58.28
2023-03-30T14:10:49.771Z,56.57
2023-03-30T14:11:52.163Z,55.79
2023-03-30T14:12:56.275Z,55.94
2023-03-30T14:13:58.563Z,56.89
2023-03-30T14:15:01.062Z,56.97
2023-03-30T14:16:03.678Z,56.33
2023-03-30T14:17:07.588Z,58.16
2023-03-30T14:18:11.635Z,59.15
2023-03-30T14:19:15.495Z,59.21
2023-03-30T14:20:17.835Z,59.53
2023-03-30T14:21:20.368Z,59.51
2023-03-30T14:22:24.382Z,60.38
2023-03-30T14:23:28.337Z,60.70
2023-03-30T14:24:32.492Z,59.99
2023-03-30T14:25:34.709Z,60.82
2023-03-30T14:26:37.156Z,60.43
2023-03-30T14:27:39.626Z,58.25
2023-03-30T14:28:42.161Z,57.30
2023-03-30T14:29:44.599Z,54.70
2023-03-30T14:30:48.674Z,55.34
2023-03-30T14:32:04.781Z,55.14
2023-03-30T14:32:56.647Z,57.54
2023-03-30T14:34:00.620Z,51.64
2023-03-30T14:35:03.018Z,50.45
2023-03-30T14:36:05.598Z,51.64
2023-03-30T14:37:07.941Z,51.26
2023-03-30T14:38:16.680Z,49.04
2023-03-30T14:39:12.902Z,50.58
2023-03-30T14:40:15.425Z,50.19
2023-03-30T14:41:19.506Z,51.68
2023-03-30T14:42:21.857Z,49.93
2023-03-30T14:43:24.269Z,50.23
2023-03-30T14:44:26.658Z,51.37
2023-03-30T14:45:30.723Z,50.98
2023-03-30T14:46:34.633Z,51.81
2023-03-30T14:47:37.000Z,52.73
2023-03-30T14:48:39.500Z,53.71
2023-03-30T14:49:41.918Z,54.10
2023-03-30T14:50:44.341Z,54.63
2023-03-30T14:51:48.446Z,55.19
2023-03-30T14:52:50.818Z,55.37
2023-03-30T14:53:53.290Z,55.35
2023-03-30T14:55:05.563Z,56.86
2023-03-30T14:55:59.916Z,56.63
2023-03-30T14:57:02.372Z,56.84
2023-03-30T14:58:06.409Z,57.59
2023-03-30T14:59:10.346Z,60.13
2023-03-30T15:00:14.312Z,61.36
2023-03-30T15:01:16.653Z,63.44
2023-03-30T15:02:19.037Z,63.65
2023-03-30T15:03:32.751Z,65.18
2023-03-30T15:04:27.114Z,64.18
2023-03-30T15:05:29.346Z,65.34
2023-03-30T15:06:31.898Z,66.35
2023-03-30T15:07:34.313Z,67.67
2023-03-30T15:08:36.786Z,67.00
2023-03-30T15:09:40.802Z,64.34
2023-03-30T15:10:44.763Z,65.67
2023-03-30T15:11:48.680Z,64.83
2023-03-30T15:12:51.046Z,65.20
2023-03-30T15:13:53.416Z,65.08
2023-03-30T15:14:55.842Z,65.84
2023-03-30T15:15:59.897Z,65.10
2023-03-30T15:17:03.848Z,66.75
2023-03-30T15:18:06.147Z,66.07
2023-03-30T15:19:08.512Z,66.40
2023-03-30T15:20:11.000Z,67.21
2023-03-30T15:21:13.469Z,66.58
2023-03-30T15:22:17.481Z,67.32
2023-03-30T15:23:19.849Z,67.73
2023-03-30T15:24:22.263Z,67.99
2023-03-30T15:25:26.311Z,67.86
2023-03-30T15:26:28.610Z,67.62
2023-03-30T15:27:31.145Z,67.96
2023-03-30T15:28:33.569Z,68.88
2023-03-30T15:29:36.046Z,69.08
2023-03-30T15:30:38.639Z,67.84
2023-03-30T15:31:41.067Z,68.58
2023-03-30T15:32:43.455Z,68.78
2023-03-30T15:33:45.884Z,69.29
2023-03-30T15:34:49.954Z,69.40
2023-03-30T15:35:53.855Z,70.03
2023-03-30T15:36:56.233Z,70.53
2023-03-30T15:37:58.721Z,71.41
2023-03-30T15:39:01.207Z,71.21
2023-03-30T15:40:03.656Z,74.20
2023-03-30T15:41:07.771Z,74.44
2023-03-30T15:42:10.213Z,74.12
2023-03-30T15:43:12.487Z,73.77
2023-03-30T15:44:14.889Z,71.64
2023-03-30T15:45:17.410Z,72.79
2023-03-30T15:46:19.844Z,72.24
2023-03-30T15:47:23.888Z,72.69
2023-03-30T15:48:27.801Z,73.43
2023-03-30T15:49:30.163Z,73.18
2023-03-30T15:50:34.188Z,72.94
2023-03-30T15:51:36.514Z,73.89
2023-03-30T15:52:38.912Z,74.27
2023-03-30T15:53:43.202Z,73.13
2023-03-30T15:54:47.041Z,71.96
2023-03-30T15:55:49.413Z,72.59
2023-03-30T15:56:53.418Z,73.16
2023-03-30T15:57:55.726Z,72.99
2023-03-30T15:58:59.817Z,73.37
2023-03-30T16:00:02.389Z,73.15
2023-03-30T16:01:06.627Z,73.30
2023-03-30T16:02:10.171Z,73.23
2023-03-30T16:03:14.130Z,73.38
2023-03-30T16:04:16.458Z,75.13
2023-03-30T16:05:20.696Z,74.79
2023-03-30T16:06:22.854Z,74.50
2023-03-30T16:07:25.370Z,72.61
2023-03-30T16:08:27.855Z,72.12
2023-03-30T16:09:31.913Z,73.16
2023-03-30T16:10:34.276Z,72.23
2023-03-30T16:11:36.695Z,72.69
2023-03-30T16:12:40.313Z,71.76
2023-03-30T16:13:41.679Z,69.90
2023-03-30T16:14:45.827Z,68.07
2023-03-30T16:15:49.872Z,71.42
2023-03-30T16:16:53.848Z,69.80
2023-03-30T16:17:57.806Z,68.59
2023-03-30T16:19:00.160Z,69.88
2023-03-30T16:20:04.272Z,65.47
2023-03-30T16:21:05.408Z,65.58
2023-03-30T16:22:09.243Z,63.65
2023-03-30T16:23:11.655Z,63.27
2023-03-30T16:24:14.103Z,61.50
2023-03-30T16:25:16.665Z,62.85
2023-03-30T16:26:20.700Z,62.23
2023-03-30T16:27:23.047Z,59.64
2023-03-30T16:28:25.614Z,60.34
2023-03-30T16:29:29.650Z,60.16
2023-03-30T16:30:33.604Z,58.55
2023-03-30T16:31:35.983Z,58.94
2023-03-30T16:32:38.477Z,58.69
2023-03-30T16:33:40.949Z,58.68
2023-03-30T16:34:43.389Z,58.34
2023-03-30T16:35:45.867Z,57.48
2023-03-30T16:36:48.273Z,57.12
2023-03-30T16:37:52.405Z,57.76
2023-03-30T16:38:56.246Z,58.34
2023-03-30T16:39:58.578Z,57.85
2023-03-30T16:41:01.053Z,59.02
2023-03-30T16:42:03.527Z,58.12
2023-03-30T16:43:07.624Z,57.81
2023-03-30T16:44:11.552Z,58.32
2023-03-30T16:45:13.893Z,57.24
2023-03-30T16:46:18.161Z,56.37
2023-03-30T16:47:20.392Z,56.71
2023-03-30T16:48:22.757Z,56.42
2023-03-30T16:49:25.271Z,56.42
2023-03-30T16:50:27.713Z,56.14
2023-03-30T16:51:30.212Z,56.17
2023-03-30T16:52:34.298Z,56.64
2023-03-30T16:53:36.589Z,56.15
2023-03-30T16:54:40.612Z,57.33
2023-03-30T16:55:44.597Z,56.88
2023-03-30T16:56:48.613Z,57.06
2023-03-30T16:57:50.867Z,57.98
2023-03-30T16:58:53.267Z,57.98
2023-03-30T16:59:57.284Z,59.32
2023-03-30T17:01:01.272Z,59.72
2023-03-30T17:02:03.492Z,59.43
2023-03-30T17:03:06.023Z,60.70
2023-03-30T17:04:08.415Z,60.71
2023-03-30T17:05:10.987Z,60.64
2023-03-30T17:06:13.318Z,61.06
2023-03-30T17:07:17.363Z,61.94
2023-03-30T17:08:21.333Z,60.74
2023-03-30T17:09:23.688Z,60.91
2023-03-30T17:10:26.187Z,60.19
2023-03-30T17:11:30.083Z,59.57
2023-03-30T17:12:32.397Z,59.11
2023-03-30T17:13:34.870Z,58.60
2023-03-30T17:14:39.739Z,57.88
2023-03-30T17:15:41.255Z,57.62
2023-03-30T17:16:43.747Z,58.02
2023-03-30T17:17:46.208Z,58.45
2023-03-30T17:18:48.674Z,59.24
2023-03-30T17:19:51.115Z,59.47
2023-03-30T17:20:53.567Z,59.77
2023-03-30T17:21:57.536Z,60.00
2023-03-30T17:22:59.904Z,60.29
2023-03-30T17:24:02.329Z,60.87
2023-03-30T17:25:04.833Z,61.39
2023-03-30T17:26:08.731Z,62.25
2023-03-30T17:27:10.800Z,61.94
2023-03-30T17:28:13.341Z,62.19
2023-03-30T17:29:15.709Z,62.37
2023-03-30T17:30:19.759Z,62.71
2023-03-30T17:31:22.046Z,63.25
2023-03-30T17:32:24.757Z,63.67
2023-03-30T17:33:28.636Z,63.86
2023-03-30T17:34:30.854Z,63.96
2023-03-30T17:35:33.401Z,63.74
2023-03-30T17:36:37.422Z,64.23
2023-03-30T17:37:39.711Z,63.91
2023-03-30T17:38:43.997Z,64.41
2023-03-30T17:39:46.045Z,64.64
2023-03-30T17:40:48.531Z,64.88
2023-03-30T17:41:50.927Z,65.15
2023-03-30T17:42:53.435Z,65.63
2023-03-30T17:43:57.424Z,65.99
2023-03-30T17:44:59.795Z,65.90
2023-03-30T17:46:02.262Z,65.61
2023-03-30T17:47:04.755Z,66.12
2023-03-30T17:48:07.154Z,66.21
2023-03-30T17:49:09.526Z,66.71
2023-03-30T17:50:11.964Z,66.84
2023-03-30T17:51:16.174Z,67.30
2023-03-30T17:52:20.270Z,67.32
2023-03-30T17:53:22.540Z,67.54
2023-03-30T18:02:55.523Z,70.28
2023-03-30T18:03:57.784Z,70.67
2023-03-30T18:05:01.877Z,70.35
2023-03-30T18:14:32.969Z,71.70
2023-03-30T18:15:35.435Z,71.99
2023-03-30T18:25:09.735Z,73.05
2023-03-30T18:34:42.865Z,73.40
2023-03-30T18:35:45.383Z,73.39
2023-03-30T18:45:18.599Z,73.87
2023-03-30T18:54:52.896Z,74.07
2023-03-30T19:04:26.980Z,74.32
2023-03-30T19:14:01.041Z,75.73
2023-03-30T19:23:34.980Z,77.76
2023-03-30T19:33:08.553Z,78.70
2023-03-30T19:42:43.719Z,79.92
2023-03-30T19:52:17.631Z,80.89
2023-03-30T19:53:21.566Z,80.75
2023-03-30T20:02:54.560Z,81.35
2023-03-30T20:12:28.657Z,82.21
2023-03-30T20:22:01.267Z,82.61
2023-03-30T20:31:35.788Z,82.59
2023-03-30T20:41:09.968Z,82.62
2023-03-30T20:50:44.077Z,83.88
2023-03-30T21:00:18.220Z,84.65
2023-03-30T21:09:52.666Z,84.29
2023-03-30T21:19:26.822Z,85.08
2023-03-30T21:29:00.487Z,85.85
2023-03-30T21:38:34.884Z,87.07
2023-03-30T21:48:09.144Z,87.89
2023-03-30T21:57:43.196Z,88.46
2023-03-30T22:07:17.442Z,89.16
2023-03-30T22:16:51.373Z,89.82
2023-03-30T22:26:25.208Z,90.41
2023-03-30T22:35:59.246Z,90.15
2023-03-30T22:45:32.991Z,89.97
2023-03-30T22:55:08.090Z,90.84
2023-03-30T23:04:40.078Z,91.61
2023-03-30T23:14:15.810Z,92.30
2023-03-30T23:23:48.233Z,92.62
2023-03-30T23:33:22.419Z,93.04
2023-03-30T23:42:55.712Z,93.83
2023-03-30T23:52:29.621Z,96.39
